Time;durP1;ratioP1;P1;durP2;ratioP2;P2;SDS_P1;SDS_P2;PMS_P1;PMS_P2;Temp;Humidity;BMP_temperature;BMP_pressure;BME280_temperature;BME280_humidity;BME280_pressure;Samples;Min_cycle;Max_cycle;Signal;HPM_P1;HPM_P2
2024/01/20 00:01:07;;;;;;;4.30;3.60;;;;;;;;;;5018856;28;20037;-25
2024/01/20 00:03:34;;;;;;;3.47;3.17;;;;;;;;;;5017799;28;20049;-23
2024/01/20 00:06:00;;;;;;;4.45;4.07;;;;;;;;;;5018065;28;20030;-23
2024/01/20 00:08:26;;;;;;;4.60;4.13;;;;;;;;;;5018298;28;20026;-23
2024/01/20 00:10:52;;;;;;;3.95;3.30;;;;;;;;;;5017822;28;20061;-24
2024/01/20 00:13:18;;;;;;;3.28;2.83;;;;;;;;;;5018090;28;20105;-24
2024/01/20 00:15:44;;;;;;;4.70;3.80;;;;;;;;;;5017857;28;20369;-24
2024/01/20 00:18:10;;;;;;;4.70;3.78;;;;;;;;;;5017829;28;20028;-27
2024/01/20 00:20:37;;;;;;;3.92;3.63;;;;;;;;;;5018022;28;20369;-24
2024/01/20 00:23:03;;;;;;;4.95;4.43;;;;;;;;;;5017897;28;20030;-23
2024/01/20 00:25:30;;;;;;;4.50;4.10;;;;;;;;;;5017581;28;20026;-25
2024/01/20 00:27:56;;;;;;;4.85;3.47;;;;;;;;;;5017640;28;20136;-25
2024/01/20 00:30:22;;;;;;;4.53;3.97;;;;;;;;;;5018259;28;20029;-24
2024/01/20 00:32:48;;;;;;;3.63;3.30;;;;;;;;;;5017756;28;20045;-24
2024/01/20 00:35:14;;;;;;;4.78;4.30;;;;;;;;;;5017513;28;20468;-24
2024/01/20 00:37:40;;;;;;;4.13;3.72;;;;;;;;;;5017459;28;20041;-25
2024/01/20 00:40:07;;;;;;;4.35;3.42;;;;;;;;;;5017639;28;20037;-24
2024/01/20 00:42:33;;;;;;;4.32;3.92;;;;;;;;;;5017820;28;20050;-23
2024/01/20 00:44:59;;;;;;;6.43;3.67;;;;;;;;;;5017322;28;20061;-24
2024/01/20 00:47:26;;;;;;;4.53;4.00;;;;;;;;;;5017565;28;20112;-25
2024/01/20 00:49:52;;;;;;;3.70;3.38;;;;;;;;;;5017177;28;20037;-24
2024/01/20 00:52:18;;;;;;;4.20;3.80;;;;;;;;;;5017139;28;20014;-24
2024/01/20 00:54:44;;;;;;;3.95;3.55;;;;;;;;;;5017414;28;20033;-24
2024/01/20 00:57:10;;;;;;;4.55;4.00;;;;;;;;;;5017144;28;20022;-25
2024/01/20 00:59:36;;;;;;;5.18;3.63;;;;;;;;;;5017081;28;20029;-25
2024/01/20 01:02:02;;;;;;;5.45;3.65;;;;;;;;;;5016941;28;20046;-25
2024/01/20 01:04:28;;;;;;;3.67;3.25;;;;;;;;;;5016809;28;20050;-25
2024/01/20 01:06:55;;;;;;;4.80;4.10;;;;;;;;;;5017216;28;20030;-26
2024/01/20 01:09:21;;;;;;;3.85;3.47;;;;;;;;;;5016507;28;20025;-24
2024/01/20 01:11:47;;;;;;;5.13;4.15;;;;;;;;;;5017004;28;20097;-23
2024/01/20 01:14:13;;;;;;;4.35;3.95;;;;;;;;;;5017058;28;20442;-24
2024/01/20 01:16:39;;;;;;;3.60;3.30;;;;;;;;;;5016765;28;20330;-23
2024/01/20 01:19:05;;;;;;;4.32;3.90;;;;;;;;;;5016972;28;20096;-24
2024/01/20 01:21:31;;;;;;;7.20;4.63;;;;;;;;;;5016895;28;20356;-23
2024/01/20 01:23:57;;;;;;;3.60;3.30;;;;;;;;;;5016528;28;20096;-25
2024/01/20 01:26:24;;;;;;;5.07;3.63;;;;;;;;;;5016839;28;20026;-24
2024/01/20 01:28:50;;;;;;;4.57;4.25;;;;;;;;;;5016436;28;20381;-25
2024/01/20 01:31:16;;;;;;;3.50;3.20;;;;;;;;;;5016461;28;20046;-25
2024/01/20 01:33:42;;;;;;;4.05;3.65;;;;;;;;;;5016602;28;20372;-24
2024/01/20 01:36:08;;;;;;;4.13;3.72;;;;;;;;;;5016627;28;20026;-23
2024/01/20 01:38:34;;;;;;;4.28;3.67;;;;;;;;;;5016585;28;20433;-23
2024/01/20 01:41:00;;;;;;;4.68;3.45;;;;;;;;;;5016322;28;20034;-25
2024/01/20 01:43:27;;;;;;;3.50;3.20;;;;;;;;;;5016188;28;20483;-24
2024/01/20 01:45:53;;;;;;;3.85;3.55;;;;;;;;;;5016455;28;20172;-23
2024/01/20 01:48:20;;;;;;;4.85;2.70;;;;;;;;;;5016438;28;20037;-23
2024/01/20 01:50:46;;;;;;;4.10;3.33;;;;;;;;;;5016040;28;20098;-25
2024/01/20 01:53:13;;;;;;;4.22;3.92;;;;;;;;;;5016236;28;20452;-24
2024/01/20 01:55:39;;;;;;;4.28;2.92;;;;;;;;;;5016016;28;20041;-23
2024/01/20 01:58:06;;;;;;;3.70;3.40;;;;;;;;;;5016226;28;20040;-23
2024/01/20 02:00:32;;;;;;;4.00;3.63;;;;;;;;;;5016195;28;20030;-23
2024/01/20 02:02:59;;;;;;;5.90;4.05;;;;;;;;;;5016105;28;20049;-22
2024/01/20 02:05:25;;;;;;;3.67;3.35;;;;;;;;;;5016119;28;20022;-24
2024/01/20 02:07:51;;;;;;;6.45;4.05;;;;;;;;;;5015818;28;20053;-24
2024/01/20 02:10:17;;;;;;;3.70;3.40;;;;;;;;;;5015920;28;20026;-25
2024/01/20 02:12:43;;;;;;;3.53;3.22;;;;;;;;;;5015637;28;20043;-25
2024/01/20 02:15:10;;;;;;;3.90;3.60;;;;;;;;;;5016226;28;20026;-26
2024/01/20 02:17:36;;;;;;;3.50;3.20;;;;;;;;;;5015640;28;20026;-23
2024/01/20 02:20:03;;;;;;;3.28;3.08;;;;;;;;;;5015539;28;20033;-24
2024/01/20 02:22:29;;;;;;;6.35;4.00;;;;;;;;;;5014802;28;20030;-24
2024/01/20 02:24:55;;;;;;;3.95;3.20;;;;;;;;;;5015688;28;20041;-23
2024/01/20 02:27:21;;;;;;;5.53;3.38;;;;;;;;;;5015395;28;20034;-25
2024/01/20 02:29:47;;;;;;;4.93;3.60;;;;;;;;;;5015613;28;20022;-23
2024/01/20 02:32:13;;;;;;;3.88;3.22;;;;;;;;;;5015584;28;20021;-23
2024/01/20 02:34:40;;;;;;;5.65;3.60;;;;;;;;;;5015648;28;20092;-24
2024/01/20 02:37:08;;;;;;;3.45;2.95;;;;;;;;;;5015355;28;20025;-23
2024/01/20 02:39:34;;;;;;;3.20;3.00;;;;;;;;;;5015201;28;20026;-24
2024/01/20 02:42:00;;;;;;;4.00;3.45;;;;;;;;;;5015425;28;20052;-26
2024/01/20 02:44:26;;;;;;;3.22;2.92;;;;;;;;;;5015424;28;20034;-24
2024/01/20 02:46:52;;;;;;;4.70;3.40;;;;;;;;;;5015187;28;20033;-26
2024/01/20 02:49:19;;;;;;;3.95;3.50;;;;;;;;;;5015375;28;20330;-24
2024/01/20 02:51:45;;;;;;;4.45;4.05;;;;;;;;;;5015828;28;20030;-24
2024/01/20 02:54:11;;;;;;;5.05;3.65;;;;;;;;;;5015111;28;20057;-25
2024/01/20 02:56:38;;;;;;;3.67;3.38;;;;;;;;;;5015046;28;20026;-24
2024/01/20 02:59:04;;;;;;;4.20;3.80;;;;;;;;;;5015054;28;20033;-23
2024/01/20 03:01:30;;;;;;;3.85;3.55;;;;;;;;;;5015264;28;20045;-27
2024/01/20 03:03:56;;;;;;;3.40;3.10;;;;;;;;;;5014779;28;20124;-25
2024/01/20 03:06:22;;;;;;;3.60;3.40;;;;;;;;;;5014923;28;20492;-24
2024/01/20 03:08:48;;;;;;;4.05;3.75;;;;;;;;;;5014937;28;20029;-24
2024/01/20 03:11:15;;;;;;;2.95;2.75;;;;;;;;;;5015173;28;20058;-24
2024/01/20 03:13:41;;;;;;;3.97;3.42;;;;;;;;;;5014819;28;20026;-23
2024/01/20 03:16:08;;;;;;;3.50;3.20;;;;;;;;;;5014835;28;20053;-23
2024/01/20 03:18:37;;;;;;;3.58;3.28;;;;;;;;;;5014758;28;20033;-24
2024/01/20 03:21:03;;;;;;;3.78;3.30;;;;;;;;;;5015056;28;20036;-25
2024/01/20 03:23:30;;;;;;;5.53;4.20;;;;;;;;;;5014692;28;20026;-26
2024/01/20 03:25:56;;;;;;;3.33;3.03;;;;;;;;;;5015033;28;20022;-24
2024/01/20 03:28:22;;;;;;;4.15;3.30;;;;;;;;;;5014732;28;20022;-26
2024/01/20 03:30:48;;;;;;;4.00;3.53;;;;;;;;;;5014921;28;20029;-25
2024/01/20 03:33:14;;;;;;;3.17;2.90;;;;;;;;;;5017178;28;20026;-23
2024/01/20 03:35:40;;;;;;;3.85;3.50;;;;;;;;;;5019157;28;20022;-22
2024/01/20 03:38:07;;;;;;;4.45;3.10;;;;;;;;;;5018611;28;20092;-25
2024/01/20 03:40:33;;;;;;;3.20;2.92;;;;;;;;;;5018491;28;20113;-25
2024/01/20 03:42:59;;;;;;;4.05;3.55;;;;;;;;;;5018707;28;20018;-23
2024/01/20 03:45:25;;;;;;;3.72;3.10;;;;;;;;;;5018704;28;20025;-25
2024/01/20 03:47:51;;;;;;;3.63;3.42;;;;;;;;;;5018693;28;20048;-23
2024/01/20 03:50:17;;;;;;;3.30;3.00;;;;;;;;;;5018302;28;20036;-24
2024/01/20 03:52:43;;;;;;;3.25;2.95;;;;;;;;;;5018278;28;20022;-23
2024/01/20 03:55:09;;;;;;;3.70;2.97;;;;;;;;;;5018267;28;20089;-24
2024/01/20 03:57:35;;;;;;;3.33;3.03;;;;;;;;;;5018501;28;20028;-23
2024/01/20 04:00:01;;;;;;;3.75;3.45;;;;;;;;;;5018186;28;20032;-26
2024/01/20 04:02:28;;;;;;;3.72;3.42;;;;;;;;;;5018105;28;20034;-26
2024/01/20 04:04:54;;;;;;;3.28;3.08;;;;;;;;;;5017965;28;20112;-25
2024/01/20 04:07:20;;;;;;;3.97;3.63;;;;;;;;;;5018360;28;20033;-25
2024/01/20 04:09:46;;;;;;;3.20;2.90;;;;;;;;;;5017948;28;20025;-24
2024/01/20 04:12:12;;;;;;;3.75;3.33;;;;;;;;;;5018149;28;20033;-24
2024/01/20 04:14:38;;;;;;;3.45;3.15;;;;;;;;;;5018202;28;20393;-23
2024/01/20 04:17:04;;;;;;;3.60;3.30;;;;;;;;;;5018139;28;20369;-24
2024/01/20 04:19:30;;;;;;;4.65;4.25;;;;;;;;;;5017761;28;20029;-24
2024/01/20 04:21:57;;;;;;;3.60;3.30;;;;;;;;;;5017717;28;20030;-25
2024/01/20 04:24:23;;;;;;;3.70;2.90;;;;;;;;;;5018030;28;20026;-26
2024/01/20 04:26:49;;;;;;;3.67;3.35;;;;;;;;;;5017621;28;20025;-24
2024/01/20 04:29:15;;;;;;;3.53;3.22;;;;;;;;;;5017858;28;20018;-24
2024/01/20 04:31:41;;;;;;;3.40;3.10;;;;;;;;;;5017594;28;20369;-24
2024/01/20 04:34:07;;;;;;;3.50;3.20;;;;;;;;;;5017522;28;20036;-23
2024/01/20 04:36:33;;;;;;;3.15;2.85;;;;;;;;;;5017786;28;20018;-23
2024/01/20 04:38:59;;;;;;;3.17;2.95;;;;;;;;;;5017793;28;20065;-24
2024/01/20 04:41:25;;;;;;;2.88;2.67;;;;;;;;;;5017701;28;20018;-25
2024/01/20 04:43:52;;;;;;;3.53;3.22;;;;;;;;;;5016680;28;20022;-24
2024/01/20 04:46:18;;;;;;;3.63;3.30;;;;;;;;;;5017610;28;20408;-24
2024/01/20 04:48:44;;;;;;;3.72;3.25;;;;;;;;;;5017263;28;20026;-25
2024/01/20 04:51:10;;;;;;;3.00;2.80;;;;;;;;;;5017201;28;20026;-24
2024/01/20 04:53:36;;;;;;;3.67;3.17;;;;;;;;;;5017171;28;20496;-23
2024/01/20 04:56:03;;;;;;;2.85;2.65;;;;;;;;;;5017182;28;20084;-23
2024/01/20 04:58:30;;;;;;;3.60;3.30;;;;;;;;;;5017088;28;20033;-24
2024/01/20 05:00:56;;;;;;;2.90;2.65;;;;;;;;;;5017381;28;20084;-23
2024/01/20 05:03:23;;;;;;;2.67;2.50;;;;;;;;;;5016924;28;20497;-24
2024/01/20 05:05:49;;;;;;;2.85;2.63;;;;;;;;;;5016929;28;20460;-24
2024/01/20 05:08:15;;;;;;;3.58;3.22;;;;;;;;;;5016982;28;20119;-24
2024/01/20 05:10:42;;;;;;;3.20;2.92;;;;;;;;;;5016865;28;20030;-24
2024/01/20 05:13:08;;;;;;;3.13;2.92;;;;;;;;;;5016939;28;20365;-25
2024/01/20 05:15:34;;;;;;;3.42;3.13;;;;;;;;;;5016789;28;20049;-25
2024/01/20 05:18:00;;;;;;;3.40;3.10;;;;;;;;;;5016725;28;20037;-24
2024/01/20 05:20:27;;;;;;;3.42;3.05;;;;;;;;;;5016968;28;20033;-25
2024/01/20 05:22:53;;;;;;;3.28;3.08;;;;;;;;;;5016852;28;20117;-23
2024/01/20 05:25:19;;;;;;;3.40;3.10;;;;;;;;;;5016895;28;20537;-24
2024/01/20 05:27:45;;;;;;;3.50;3.22;;;;;;;;;;5016811;28;20033;-25
2024/01/20 05:30:12;;;;;;;3.65;3.35;;;;;;;;;;5016451;28;20033;-24
2024/01/20 05:32:43;;;;;;;3.05;2.85;;;;;;;;;;5016671;28;20350;-25
2024/01/20 05:35:09;;;;;;;3.40;3.20;;;;;;;;;;5016754;28;20026;-25
2024/01/20 05:37:35;;;;;;;3.22;2.92;;;;;;;;;;5016894;28;20022;-24
2024/01/20 05:40:03;;;;;;;4.45;3.22;;;;;;;;;;5016615;28;20349;-24
2024/01/20 05:42:29;;;;;;;5.93;2.83;;;;;;;;;;5016509;28;20396;-25
2024/01/20 05:44:55;;;;;;;3.20;3.00;;;;;;;;;;5016284;28;20033;-24
2024/01/20 05:47:21;;;;;;;3.63;3.33;;;;;;;;;;5016446;28;20405;-25
2024/01/20 05:49:48;;;;;;;3.47;3.17;;;;;;;;;;5016894;28;20065;-25
2024/01/20 05:52:14;;;;;;;3.00;2.70;;;;;;;;;;5015983;28;20519;-24
2024/01/20 05:54:40;;;;;;;2.92;2.72;;;;;;;;;;5015985;28;20030;-23
2024/01/20 05:57:06;;;;;;;3.00;2.80;;;;;;;;;;5015013;28;20446;-23
2024/01/20 05:59:32;;;;;;;2.97;2.78;;;;;;;;;;5015967;28;20065;-24
2024/01/20 06:01:58;;;;;;;3.72;3.42;;;;;;;;;;5015890;28;20029;-23
2024/01/20 06:04:24;;;;;;;3.90;2.75;;;;;;;;;;5015700;28;20058;-25
2024/01/20 06:06:50;;;;;;;2.90;2.70;;;;;;;;;;5016087;28;20187;-24
2024/01/20 06:09:17;;;;;;;2.90;2.70;;;;;;;;;;5015741;28;20044;-24
2024/01/20 06:11:43;;;;;;;3.22;3.03;;;;;;;;;;5015771;28;20033;-25
2024/01/20 06:14:09;;;;;;;3.08;2.78;;;;;;;;;;5015877;28;20414;-24
2024/01/20 06:16:38;;;;;;;3.70;3.40;;;;;;;;;;5015682;28;20042;-23
2024/01/20 06:19:05;;;;;;;3.67;3.38;;;;;;;;;;5015581;28;20025;-26
2024/01/20 06:21:31;;;;;;;3.72;3.42;;;;;;;;;;5015592;28;20018;-25
2024/01/20 06:23:57;;;;;;;3.30;3.00;;;;;;;;;;5015435;28;20109;-24
2024/01/20 06:26:24;;;;;;;5.43;3.10;;;;;;;;;;5015762;28;20021;-24
2024/01/20 06:28:50;;;;;;;3.33;3.03;;;;;;;;;;5015517;28;20046;-25
2024/01/20 06:31:26;;;;;;;4.18;3.78;;;;;;;;;;5015658;28;20384;-23
2024/01/20 06:33:52;;;;;;;3.45;3.15;;;;;;;;;;5015654;28;20033;-23
2024/01/20 06:36:21;;;;;;;3.85;2.53;;;;;;;;;;5015381;28;20334;-23
2024/01/20 06:38:47;;;;;;;2.67;2.47;;;;;;;;;;5015612;28;20030;-25
2024/01/20 06:41:13;;;;;;;4.68;3.13;;;;;;;;;;5015298;28;20369;-25
2024/01/20 06:43:40;;;;;;;3.72;3.42;;;;;;;;;;5015293;28;20030;-23
2024/01/20 06:46:07;;;;;;;3.78;3.30;;;;;;;;;;5015245;28;20427;-24
2024/01/20 06:48:33;;;;;;;3.20;3.00;;;;;;;;;;5015104;28;20041;-24
2024/01/20 06:51:06;;;;;;;3.20;2.85;;;;;;;;;;5015027;28;20121;-23
2024/01/20 06:53:32;;;;;;;3.10;2.80;;;;;;;;;;5015133;28;20076;-23
2024/01/20 06:55:59;;;;;;;3.05;2.85;;;;;;;;;;5015095;28;20032;-25
2024/01/20 06:58:25;;;;;;;3.03;2.80;;;;;;;;;;5015293;28;20100;-24
2024/01/20 07:00:51;;;;;;;2.83;2.63;;;;;;;;;;5015031;28;20025;-24
2024/01/20 07:03:17;;;;;;;3.63;3.20;;;;;;;;;;5014883;28;20038;-24
2024/01/20 07:05:44;;;;;;;3.17;2.90;;;;;;;;;;5014947;28;20026;-26
2024/01/20 07:08:10;;;;;;;3.10;2.90;;;;;;;;;;5014893;28;20022;-24
2024/01/20 07:10:36;;;;;;;3.10;2.75;;;;;;;;;;5015078;28;20032;-24
2024/01/20 07:13:03;;;;;;;3.65;3.38;;;;;;;;;;5014813;28;20105;-26
2024/01/20 07:15:29;;;;;;;3.40;3.20;;;;;;;;;;5015119;28;20033;-25
2024/01/20 07:17:58;;;;;;;2.78;2.58;;;;;;;;;;5015380;28;20022;-25
2024/01/20 07:20:25;;;;;;;3.45;3.15;;;;;;;;;;5015612;28;20046;-23
2024/01/20 07:22:51;;;;;;;3.47;2.90;;;;;;;;;;5014705;28;20467;-24
2024/01/20 07:25:20;;;;;;;3.03;2.72;;;;;;;;;;5015036;28;20104;-25
2024/01/20 07:27:47;;;;;;;3.30;3.10;;;;;;;;;;5014722;28;20022;-24
2024/01/20 07:30:13;;;;;;;2.90;2.70;;;;;;;;;;5014878;28;20034;-25
2024/01/20 07:32:40;;;;;;;3.28;3.05;;;;;;;;;;5014896;28;20026;-23
2024/01/20 07:35:07;;;;;;;3.42;3.13;;;;;;;;;;5014972;28;20026;-24
2024/01/20 07:37:36;;;;;;;3.55;3.25;;;;;;;;;;5014564;28;20105;-25
2024/01/20 07:40:06;;;;;;;4.65;4.13;;;;;;;;;;5014650;28;20029;-24
2024/01/20 07:42:32;;;;;;;6.05;3.25;;;;;;;;;;5014752;28;20026;-24
2024/01/20 07:45:02;;;;;;;3.10;2.90;;;;;;;;;;5014871;28;20365;-23
2024/01/20 07:47:28;;;;;;;3.17;2.88;;;;;;;;;;5014543;28;20026;-22
2024/01/20 07:49:54;;;;;;;3.05;2.85;;;;;;;;;;5014499;28;20092;-25
2024/01/20 07:52:20;;;;;;;3.97;3.65;;;;;;;;;;5014422;28;20014;-25
2024/01/20 07:54:46;;;;;;;3.00;2.80;;;;;;;;;;5014508;28;20084;-23
2024/01/20 07:57:12;;;;;;;3.08;2.88;;;;;;;;;;5015009;28;20323;-23
2024/01/20 07:59:39;;;;;;;3.03;2.35;;;;;;;;;;5014745;28;20060;-24
2024/01/20 08:02:05;;;;;;;3.60;3.30;;;;;;;;;;5014284;28;20045;-23
2024/01/20 08:04:31;;;;;;;2.83;2.63;;;;;;;;;;5014238;28;20089;-24
2024/01/20 08:06:57;;;;;;;3.05;2.85;;;;;;;;;;5014416;28;20034;-23
2024/01/20 08:09:23;;;;;;;3.80;3.40;;;;;;;;;;5014220;28;20453;-26
2024/01/20 08:11:49;;;;;;;3.00;2.80;;;;;;;;;;5014516;28;20080;-24
2024/01/20 08:14:15;;;;;;;3.00;2.80;;;;;;;;;;5014557;28;20165;-25
2024/01/20 08:16:41;;;;;;;3.33;3.13;;;;;;;;;;5014572;28;20048;-24
2024/01/20 08:19:08;;;;;;;3.70;2.97;;;;;;;;;;5015211;28;20469;-25
2024/01/20 08:21:34;;;;;;;3.28;3.03;;;;;;;;;;5017824;28;20076;-24
2024/01/20 08:24:01;;;;;;;3.58;3.28;;;;;;;;;;5017741;28;20026;-24
2024/01/20 08:26:27;;;;;;;3.17;2.88;;;;;;;;;;5018013;28;20100;-24
2024/01/20 08:28:53;;;;;;;4.07;3.55;;;;;;;;;;5017710;28;20100;-24
2024/01/20 08:31:19;;;;;;;3.10;2.85;;;;;;;;;;5017884;28;20033;-23
2024/01/20 08:33:45;;;;;;;3.03;2.83;;;;;;;;;;5017556;28;20068;-25
2024/01/20 08:36:11;;;;;;;3.67;3.40;;;;;;;;;;5017601;28;20057;-25
2024/01/20 08:38:37;;;;;;;2.90;2.70;;;;;;;;;;5017555;28;20334;-25
2024/01/20 08:41:10;;;;;;;3.00;2.80;;;;;;;;;;5017491;28;20037;-25
2024/01/20 08:43:42;;;;;;;2.70;2.50;;;;;;;;;;5017534;28;20033;-26
2024/01/20 08:46:09;;;;;;;4.07;3.28;;;;;;;;;;5017377;28;20049;-26
2024/01/20 08:48:35;;;;;;;3.47;3.17;;;;;;;;;;5017296;28;20041;-25
2024/01/20 08:51:01;;;;;;;3.60;2.90;;;;;;;;;;5017504;28;20040;-24
2024/01/20 08:53:27;;;;;;;3.33;3.00;;;;;;;;;;5017435;28;20465;-24
2024/01/20 08:55:54;;;;;;;2.95;2.75;;;;;;;;;;5017223;28;20029;-23
2024/01/20 08:58:20;;;;;;;3.28;3.00;;;;;;;;;;5017136;28;20022;-25
2024/01/20 09:00:46;;;;;;;3.47;3.17;;;;;;;;;;5017129;28;20096;-24
2024/01/20 09:03:13;;;;;;;3.55;3.25;;;;;;;;;;5016815;28;20053;-24
2024/01/20 09:05:39;;;;;;;3.00;2.80;;;;;;;;;;5017027;28;20041;-24
2024/01/20 09:08:05;;;;;;;3.15;2.95;;;;;;;;;;5016977;28;20101;-23
2024/01/20 09:10:31;;;;;;;3.60;3.33;;;;;;;;;;5017140;28;20422;-25
2024/01/20 09:12:57;;;;;;;2.80;2.60;;;;;;;;;;5016825;28;20029;-25
2024/01/20 09:15:23;;;;;;;2.25;2.15;;;;;;;;;;5017115;28;20318;-24
2024/01/20 09:17:49;;;;;;;2.92;2.72;;;;;;;;;;5016809;28;20032;-25
2024/01/20 09:20:16;;;;;;;3.65;3.10;;;;;;;;;;5017026;28;20056;-23
2024/01/20 09:22:42;;;;;;;2.90;2.70;;;;;;;;;;5016898;28;20072;-23
2024/01/20 09:25:08;;;;;;;3.50;3.22;;;;;;;;;;5016655;28;20453;-23
2024/01/20 09:27:34;;;;;;;3.03;2.83;;;;;;;;;;5016873;28;20356;-23
2024/01/20 09:30:00;;;;;;;3.28;3.05;;;;;;;;;;5016554;28;20029;-23
2024/01/20 09:32:28;;;;;;;3.25;3.03;;;;;;;;;;5016426;28;20025;-24
2024/01/20 09:34:54;;;;;;;2.88;2.67;;;;;;;;;;5016416;28;20073;-24
2024/01/20 09:37:20;;;;;;;3.03;2.83;;;;;;;;;;5016669;28;20026;-26
2024/01/20 09:39:46;;;;;;;3.20;2.90;;;;;;;;;;5016605;28;20037;-25
2024/01/20 09:42:12;;;;;;;2.83;2.50;;;;;;;;;;5016479;28;20084;-24
2024/01/20 09:44:38;;;;;;;3.17;2.88;;;;;;;;;;5016559;28;20095;-24
2024/01/20 09:47:08;;;;;;;3.25;2.95;;;;;;;;;;5016287;28;20052;-23
2024/01/20 09:49:34;;;;;;;3.05;2.80;;;;;;;;;;5016062;28;20033;-24
2024/01/20 09:52:06;;;;;;;3.25;3.05;;;;;;;;;;5016103;28;20037;-26
2024/01/20 09:54:33;;;;;;;3.17;2.92;;;;;;;;;;5016117;28;20033;-25
2024/01/20 09:56:59;;;;;;;3.65;3.40;;;;;;;;;;5016084;28;20022;-26
2024/01/20 09:59:26;;;;;;;2.90;2.70;;;;;;;;;;5016268;28;20030;-24
2024/01/20 10:01:53;;;;;;;2.78;2.58;;;;;;;;;;5015906;28;20026;-26
2024/01/20 10:04:20;;;;;;;2.92;2.72;;;;;;;;;;5015760;28;20049;-26
2024/01/20 10:06:46;;;;;;;2.90;2.70;;;;;;;;;;5015890;28;20361;-25
2024/01/20 10:09:12;;;;;;;3.80;3.42;;;;;;;;;;5016035;28;20068;-24
2024/01/20 10:11:38;;;;;;;2.75;2.55;;;;;;;;;;5016075;28;20412;-23
2024/01/20 10:14:04;;;;;;;2.92;2.72;;;;;;;;;;5015957;28;20360;-24
2024/01/20 10:16:40;;;;;;;2.78;2.58;;;;;;;;;;5014811;28;20425;-24
2024/01/20 10:19:06;;;;;;;3.13;2.92;;;;;;;;;;5015969;28;20025;-24
2024/01/20 10:21:39;;;;;;;2.80;2.60;;;;;;;;;;5015890;28;20049;-25
2024/01/20 10:24:06;;;;;;;3.40;3.10;;;;;;;;;;5015498;28;20033;-24
2024/01/20 10:26:40;;;;;;;3.00;2.80;;;;;;;;;;5015528;28;20032;-24
2024/01/20 10:29:06;;;;;;;3.03;2.83;;;;;;;;;;5015838;28;20061;-27
2024/01/20 10:31:32;;;;;;;3.13;2.83;;;;;;;;;;5015364;28;20026;-24
2024/01/20 10:33:58;;;;;;;2.60;2.40;;;;;;;;;;5015899;28;20056;-24
2024/01/20 10:36:25;;;;;;;2.97;2.78;;;;;;;;;;5015611;28;20026;-23
2024/01/20 10:38:53;;;;;;;2.80;2.60;;;;;;;;;;5015379;28;20026;-23
2024/01/20 10:41:21;;;;;;;2.80;2.60;;;;;;;;;;5015022;28;20080;-26
2024/01/20 10:43:52;;;;;;;3.55;3.25;;;;;;;;;;5015166;28;20330;-25
2024/01/20 10:46:23;;;;;;;2.67;2.35;;;;;;;;;;5015536;28;20338;-25
2024/01/20 10:48:53;;;;;;;3.15;2.95;;;;;;;;;;5014651;28;20108;-24
2024/01/20 10:51:22;;;;;;;2.97;2.77;;;;;;;;;;5015052;28;20032;-23
2024/01/20 10:53:49;;;;;;;3.47;3.28;;;;;;;;;;5015042;28;20033;-24
2024/01/20 10:56:16;;;;;;;2.28;2.17;;;;;;;;;;5015350;28;20032;-23
2024/01/20 10:58:49;;;;;;;2.80;2.60;;;;;;;;;;5015591;28;20110;-24
2024/01/20 11:01:15;;;;;;;2.80;2.60;;;;;;;;;;5015320;28;20079;-25
2024/01/20 11:03:42;;;;;;;2.95;2.75;;;;;;;;;;5014882;28;20385;-24
2024/01/20 11:06:18;;;;;;;3.47;3.17;;;;;;;;;;5015229;28;20101;-24
2024/01/20 11:08:48;;;;;;;2.53;2.33;;;;;;;;;;5015504;28;20033;-25
2024/01/20 11:11:14;;;;;;;2.47;2.30;;;;;;;;;;5014789;28;20026;-24
2024/01/20 11:13:40;;;;;;;3.08;2.83;;;;;;;;;;5014924;28;20393;-24
2024/01/20 11:16:06;;;;;;;2.70;2.50;;;;;;;;;;5014757;28;20449;-23
2024/01/20 11:18:40;;;;;;;3.38;3.08;;;;;;;;;;5015355;28;20100;-25
2024/01/20 11:21:06;;;;;;;3.00;2.80;;;;;;;;;;5014800;28;20509;-24
2024/01/20 11:23:32;;;;;;;2.88;2.67;;;;;;;;;;5014698;28;20042;-24
2024/01/20 11:25:59;;;;;;;2.70;2.50;;;;;;;;;;5015060;28;20085;-24
2024/01/20 11:28:25;;;;;;;2.55;2.35;;;;;;;;;;5014704;28;20353;-23
2024/01/20 11:30:52;;;;;;;2.70;2.50;;;;;;;;;;5014606;28;20085;-24
2024/01/20 11:33:18;;;;;;;2.90;2.70;;;;;;;;;;5014873;28;20026;-25
2024/01/20 11:35:44;;;;;;;2.47;2.28;;;;;;;;;;5014944;28;20026;-25
2024/01/20 11:38:10;;;;;;;2.80;2.60;;;;;;;;;;5014676;28;20026;-27
2024/01/20 11:40:36;;;;;;;2.60;2.47;;;;;;;;;;5014616;28;20084;-26
2024/01/20 11:43:06;;;;;;;2.40;2.20;;;;;;;;;;5013602;28;20112;-24
2024/01/20 11:45:32;;;;;;;2.47;2.28;;;;;;;;;;5014513;28;20026;-23
2024/01/20 11:47:59;;;;;;;2.70;2.50;;;;;;;;;;5014597;28;20030;-24
2024/01/20 11:50:25;;;;;;;3.00;2.35;;;;;;;;;;5014729;28;20101;-25
2024/01/20 11:52:51;;;;;;;2.65;2.47;;;;;;;;;;5014446;28;20117;-24
2024/01/20 11:55:17;;;;;;;2.72;2.53;;;;;;;;;;5016969;28;20092;-25
2024/01/20 11:57:43;;;;;;;2.65;2.45;;;;;;;;;;5018250;28;20022;-25
2024/01/20 12:00:11;;;;;;;2.80;2.60;;;;;;;;;;5018510;28;20061;-25
2024/01/20 12:02:37;;;;;;;2.47;2.28;;;;;;;;;;5018162;28;20036;-23
2024/01/20 12:05:04;;;;;;;2.38;2.20;;;;;;;;;;5018000;28;20052;-24
2024/01/20 12:07:30;;;;;;;2.97;2.78;;;;;;;;;;5018099;28;20088;-24
2024/01/20 12:09:57;;;;;;;2.90;2.67;;;;;;;;;;5018276;28;20026;-25
2024/01/20 12:12:23;;;;;;;2.92;2.47;;;;;;;;;;5017938;28;20022;-24
2024/01/20 12:14:50;;;;;;;2.25;2.15;;;;;;;;;;5018284;28;20361;-23
2024/01/20 12:17:16;;;;;;;2.20;2.10;;;;;;;;;;5018229;28;20076;-23
2024/01/20 12:19:42;;;;;;;2.72;2.53;;;;;;;;;;5017891;28;20098;-24
2024/01/20 12:22:09;;;;;;;2.83;2.63;;;;;;;;;;5018555;28;20057;-23
2024/01/20 12:24:36;;;;;;;2.65;2.47;;;;;;;;;;5018074;28;20048;-24
2024/01/20 12:27:02;;;;;;;2.88;2.67;;;;;;;;;;5017709;28;20037;-24
2024/01/20 12:29:29;;;;;;;2.92;2.72;;;;;;;;;;5017622;28;20026;-25
2024/01/20 12:31:56;;;;;;;2.97;2.78;;;;;;;;;;5017544;28;20029;-25
2024/01/20 12:34:25;;;;;;;2.10;2.00;;;;;;;;;;5017879;28;20400;-23
2024/01/20 12:36:52;;;;;;;2.80;2.60;;;;;;;;;;5017567;28;20026;-24
2024/01/20 12:39:18;;;;;;;2.33;2.20;;;;;;;;;;5017788;28;20034;-24
2024/01/20 12:41:44;;;;;;;2.88;2.65;;;;;;;;;;5017464;28;20105;-23
2024/01/20 12:44:10;;;;;;;2.60;2.40;;;;;;;;;;5017623;28;20327;-24
2024/01/20 12:46:36;;;;;;;2.22;2.13;;;;;;;;;;5017653;28;20355;-24
2024/01/20 12:49:03;;;;;;;2.30;2.10;;;;;;;;;;5017630;28;20026;-24
2024/01/20 12:51:29;;;;;;;2.17;2.08;;;;;;;;;;5018282;28;20363;-24
2024/01/20 12:53:55;;;;;;;2.25;2.15;;;;;;;;;;5017158;28;20068;-25
2024/01/20 12:56:21;;;;;;;3.08;2.88;;;;;;;;;;5017513;28;20026;-25
2024/01/20 12:58:47;;;;;;;2.50;2.30;;;;;;;;;;5017141;28;20018;-24
2024/01/20 13:01:16;;;;;;;2.08;1.88;;;;;;;;;;5017394;28;20025;-25
2024/01/20 13:03:42;;;;;;;2.53;2.42;;;;;;;;;;5016756;28;20125;-25
2024/01/20 13:06:08;;;;;;;2.80;2.60;;;;;;;;;;5016543;28;20033;-24
2024/01/20 13:08:35;;;;;;;2.20;2.10;;;;;;;;;;5017003;28;20384;-25
2024/01/20 13:11:01;;;;;;;2.83;2.63;;;;;;;;;;5017109;28;20036;-24
2024/01/20 13:13:27;;;;;;;2.85;2.65;;;;;;;;;;5016718;28;20032;-24
2024/01/20 13:15:53;;;;;;;3.75;3.55;;;;;;;;;;5017361;28;20437;-24
2024/01/20 13:18:19;;;;;;;2.95;2.75;;;;;;;;;;5016874;28;20085;-23
2024/01/20 13:20:45;;;;;;;2.33;2.13;;;;;;;;;;5017297;28;20381;-24
2024/01/20 13:23:12;;;;;;;2.78;2.03;;;;;;;;;;5016626;28;20026;-26
2024/01/20 13:25:39;;;;;;;2.30;2.20;;;;;;;;;;5016913;28;20026;-24
2024/01/20 13:28:06;;;;;;;2.28;2.15;;;;;;;;;;5016574;28;20087;-27
2024/01/20 13:30:32;;;;;;;2.53;2.33;;;;;;;;;;5016706;28;20030;-24
2024/01/20 13:32:58;;;;;;;2.33;2.15;;;;;;;;;;5016451;28;20041;-24
2024/01/20 13:35:24;;;;;;;2.58;2.38;;;;;;;;;;5016735;28;20025;-25
2024/01/20 13:37:51;;;;;;;2.10;2.00;;;;;;;;;;5016455;28;20053;-25
2024/01/20 13:40:17;;;;;;;2.80;2.60;;;;;;;;;;5016327;28;20030;-25
2024/01/20 13:42:43;;;;;;;2.25;2.15;;;;;;;;;;5016254;28;20033;-23
2024/01/20 13:45:09;;;;;;;2.35;2.15;;;;;;;;;;5016549;28;20026;-23
2024/01/20 13:47:37;;;;;;;2.35;2.25;;;;;;;;;;5016479;28;20030;-23
2024/01/20 13:50:03;;;;;;;2.40;2.20;;;;;;;;;;5016053;28;20034;-23
2024/01/20 13:52:30;;;;;;;1.83;1.73;;;;;;;;;;5016350;28;20390;-24
2024/01/20 13:54:56;;;;;;;2.20;2.10;;;;;;;;;;5015166;28;20108;-23
2024/01/20 13:57:22;;;;;;;2.25;2.13;;;;;;;;;;5016328;28;20060;-23
2024/01/20 13:59:48;;;;;;;2.53;2.33;;;;;;;;;;5016325;28;20298;-25
2024/01/20 14:02:14;;;;;;;2.42;2.22;;;;;;;;;;5015935;28;20061;-24
2024/01/20 14:04:40;;;;;;;2.65;2.45;;;;;;;;;;5015782;28;20049;-25
2024/01/20 14:07:08;;;;;;;2.38;2.25;;;;;;;;;;5016188;28;20323;-24
2024/01/20 14:09:35;;;;;;;2.42;2.28;;;;;;;;;;5016025;28;20392;-24
2024/01/20 14:12:01;;;;;;;2.58;2.38;;;;;;;;;;5016019;28;20025;-27
2024/01/20 14:14:28;;;;;;;2.15;2.05;;;;;;;;;;5015952;28;20042;-25
2024/01/20 14:16:55;;;;;;;2.45;2.25;;;;;;;;;;5015177;28;20061;-25
2024/01/20 14:19:22;;;;;;;2.65;2.45;;;;;;;;;;5015700;28;20037;-25
2024/01/20 14:21:48;;;;;;;2.30;2.10;;;;;;;;;;5015790;28;20018;-25
2024/01/20 14:24:14;;;;;;;2.47;2.33;;;;;;;;;;5015618;28;20034;-24
2024/01/20 14:26:41;;;;;;;2.55;2.35;;;;;;;;;;5015559;28;20076;-24
2024/01/20 14:29:08;;;;;;;2.38;2.22;;;;;;;;;;5015822;28;20397;-24
2024/01/20 14:31:54;;;;;;;2.33;2.08;;;;;;;;;;5015344;28;20476;-23
2024/01/20 14:34:20;;;;;;;2.17;2.08;;;;;;;;;;5015716;28;20022;-24
2024/01/20 14:36:48;;;;;;;2.22;2.10;;;;;;;;;;5015955;28;20028;-24
2024/01/20 14:39:17;;;;;;;2.88;2.67;;;;;;;;;;5015349;28;20022;-23